• Join FlightAware (Why Join?)
  • Login
  • US Flag 
12:50AM EST


 

Airport Tracker/Info


-or-


 

Live Flight TrackerFlight Track Log ✈ NKS236 ✈ 08-May-2013 ✈ SKRG / MDE - KFLL

Flight Track Log - Related Links

Times and Time Zones

All times are in EDT time to prevent confusion due to time zone crossing. See the NKS236 flight status page for this flight to view local times or setup timezone preferences in your user account.

Time Position Orientation Groundspeed Altitude Reporting Facility
EDT Latitude Longitude Course Direction KTS MPH feet Rate Location/Type
03:42PM 9.7480 -75.8280 348° North 457 526 36,000  Level FlightAware
03:43PM 9.8630 -75.8500 349° North 456 525 35,900  Descending FlightAware
03:43PM 9.9540 -75.8690 348° North 443 510 36,000 60 Climbing FlightAware
03:44PM 10.0280 -75.8830 349° North 442 509 36,000  Level FlightAware
03:45PM 10.1150 -75.8990 350° North 446 513 36,000  Level FlightAware
03:45PM 10.2060 -75.9170 349° North 441 507 36,000  Level FlightAware
03:46PM 10.2890 -75.9340 349° North 445 512 36,000  Level FlightAware
03:47PM 10.3770 -75.9510 349° North 444 511 36,000  Level FlightAware
03:47PM 10.4500 -75.9660 349° North 444 511 36,000  Level FlightAware
03:48PM 10.5630 -75.9880 349° North 442 509 36,000  Level FlightAware
03:49PM 10.6340 -76.0020 349° North 441 507 36,000  Level FlightAware
03:50PM 10.7200 -76.0190 349° North 440 506 36,000 -60 Level FlightAware
03:50PM 10.8340 -76.0430 348° North 441 507 35,900 -120 Descending FlightAware
03:51PM 10.9160 -76.0580 350° North 440 506 35,900  Level FlightAware
03:52PM 11.0280 -76.0810 349° North 440 506 35,900  Level FlightAware
03:53PM 11.1120 -76.1000 347° North 440 506 35,900  Level FlightAware
03:53PM 11.1630 -76.1110 348° North 440 506 35,900  Level FlightAware
03:54PM 11.2480 -76.1290 348° North 440 506 35,900  Level FlightAware
03:55PM 11.3160 -76.1440 348° North 440 506 35,900  Level FlightAware
03:56PM 11.3830 -76.1580 348° North 440 506 35,900  Level FlightAware
03:56PM 11.4680 -76.1770 348° North 440 506 35,900  Level FlightAware
03:57PM 11.5360 -76.1910 349° North 440 506 35,900  Level FlightAware
03:58PM 11.6030 -76.2060 348° North 440 506 35,900  Level FlightAware
03:58PM 11.6710 -76.2210 348° North 440 506 35,900  Level FlightAware
03:59PM 11.7390 -76.2350 349° North 440 506 35,900  Level FlightAware
04:00PM 11.8230 -76.2540 348° North 440 506 35,900  Level FlightAware
04:01PM 11.8910 -76.2680 349° North 440 506 35,900  Level FlightAware
04:01PM 11.9590 -76.2830 348° North 440 506 35,900  Level FlightAware
04:04PM 12.2886 -76.3667 346° North  Level Estimated
04:05PM 12.4320 -76.4032 346° North  Level Estimated
04:06PM 12.5753 -76.4397 346° North  Level Estimated
04:07PM 12.7186 -76.4763 346° North  Level Estimated
04:08PM 12.8619 -76.5128 346° North  Level Estimated
04:09PM 13.0052 -76.5495 346° North  Level Estimated
04:10PM 13.1485 -76.5862 346° North  Level Estimated
04:11PM 13.2918 -76.6229 346° North  Level Estimated
04:12PM 13.4351 -76.6596 346° North  Level Estimated
04:13PM 13.5783 -76.6964 346° North  Level Estimated
04:14PM 13.7216 -76.7333 346° North  Level Estimated
04:15PM 13.8649 -76.7702 346° North  Level Estimated
04:16PM 14.0081 -76.8071 346° North  Level Estimated
04:17PM 14.1514 -76.8441 346° North  Level Estimated
04:18PM 14.2946 -76.8812 346° North  Level Estimated
04:19PM 14.4379 -76.9182 346° North  Level Estimated
04:20PM 14.5811 -76.9554 346° North  Level Estimated
04:21PM 14.7243 -76.9926 346° North  Level Estimated
04:22PM 14.8676 -77.0298 346° North  Level Estimated
04:23PM 15.0108 -77.0671 346° North  Level Estimated
04:24PM 15.1540 -77.1044 346° North  Level Estimated
04:25PM 15.2972 -77.1418 346° North  Level Estimated
04:26PM 15.4404 -77.1792 346° North  Level Estimated
04:27PM 15.5836 -77.2167 346° North  Level Estimated
04:28PM 15.7268 -77.2542 346° North  Level Estimated
04:29PM 15.8700 -77.2918 346° North  Level Estimated
04:30PM 16.0131 -77.3294 346° North  Level Estimated
04:31PM 16.1563 -77.3671 346° North  Level Estimated
04:32PM 16.2995 -77.4049 346° North  Level Estimated
04:33PM 16.4426 -77.4427 346° North  Level Estimated
04:34PM 16.5858 -77.4805 346° North  Level Estimated
04:35PM 16.7289 -77.5184 346° North  Level Estimated
04:36PM 16.8721 -77.5564 346° North  Level Estimated
04:37PM 17.0152 -77.5944 346° North  Level Estimated
04:38PM 17.1583 -77.6325 346° North  Level Estimated
04:39PM 17.3014 -77.6707 346° North  Level Estimated
04:40PM 17.4445 -77.7089 346° North  Level Estimated
04:41PM 17.5876 -77.7471 346° North  Level Estimated
04:42PM 17.7307 -77.7855 346° North  Level Estimated
04:43PM 17.8738 -77.8239 346° North  Level Estimated
04:44PM 18.0169 -77.8623 346° North  Level Estimated
04:45PM 18.1600 -77.9008 346° North  Level Estimated
04:46PM 18.3030 -77.9394 346° North  Level Estimated
04:47PM 18.4461 -77.9780 346° North  Level Estimated
04:48PM 18.5891 -78.0167 346° North  Level Estimated
04:49PM 18.7321 -78.0555 346° North  Level Estimated
04:50PM 18.8752 -78.0943 346° North  Level Estimated
04:51PM 19.0182 -78.1332 346° North  Level Estimated
04:52PM 19.1612 -78.1722 346° North  Level Estimated
04:53PM 19.3042 -78.2112 346° North  Level Estimated
04:54PM 19.4472 -78.2503 346° North  Level Estimated
04:55PM 19.5902 -78.2895 346° North  Level Estimated
04:56PM 19.7332 -78.3287 346° North  Level Estimated
04:57PM 19.8762 -78.3680 346° North  Level Estimated
04:58PM 20.0191 -78.4074 345° North  Level Estimated
04:59PM 20.1621 -78.4469 345° North  Level Estimated
05:00PM 20.3050 -78.4864 345° North  Level Estimated
05:01PM 20.4480 -78.5260 345° North  Level Estimated
05:02PM 20.5909 -78.5657 345° North  Level Estimated
05:03PM 20.7338 -78.6054 345° North  Level Estimated
05:04PM 20.8767 -78.6452 345° North  Level Estimated
05:05PM 21.0196 -78.6852 345° North  Level Estimated
05:06PM 21.1625 -78.7251 345° North  Level Estimated
05:07PM 21.3054 -78.7652 345° North  Level Estimated
05:08PM 21.4483 -78.8053 345° North  Level Estimated
05:09PM 21.5911 -78.8455 345° North  Level Estimated
05:10PM 21.7340 -78.8858 345° North  Level Estimated
05:11PM 21.8768 -78.9262 345° North  Level Estimated
05:12PM 22.0196 -78.9666 345° North  Level Estimated
05:13PM 22.1625 -79.0071 345° North  Level Estimated
05:14PM 22.3053 -79.0478 345° North  Level Estimated
05:15PM 22.4481 -79.0885 345° North  Level Estimated
05:16PM 22.5909 -79.1292 345° North  Level Estimated
05:17PM 22.7336 -79.1701 345° North  Level Estimated
05:18PM 22.8764 -79.2111 345° North  Level Estimated
05:19PM 23.0192 -79.2521 345° North  Level Estimated
05:20PM 23.1619 -79.2932 345° North  Level Estimated
05:21PM 23.3047 -79.3344 345° North  Level Estimated
05:22PM 23.4474 -79.3757 345° North  Level Estimated
05:23PM 23.5901 -79.4171 345° North  Level Estimated
05:24PM 23.7328 -79.4586 345° North  Level Estimated
05:25PM 23.8755 -79.5002 345° North  Level Estimated
05:26PM 24.0182 -79.5418 345° North  Level Estimated
05:27PM 24.1609 -79.5836 345° North  Level Estimated
05:28PM 24.3035 -79.6254 345° North  Level Estimated
05:29PM 24.4462 -79.6674 345° North  Level Estimated
05:29PM 23.2258 -78.6156 345° North 460 529 38,000  Level Miami Center
05:30PM 24.5617 -79.7014 345° North  Level Estimated
05:30PM 23.3336 -78.6781 332° Northwest 445 512 38,000  Level Miami Center
05:31PM 24.6771 -79.7355 345° North  Level Estimated
05:31PM 23.4458 -78.7408 333° Northwest 449 517 38,000  Level Miami Center
05:32PM 24.7926 -79.7696 345° North  Level Estimated
05:32PM 23.5617 -78.8150 330° Northwest 449 517 38,000  Level Miami Center
05:33PM 24.9081 -79.8038 345° North  Level Estimated
05:33PM 23.6717 -78.8781 332° Northwest 456 525 38,000  Level Miami Center
05:34PM 25.0235 -79.8381 345° North  Level Estimated
05:34PM 23.7794 -78.9433 331° Northwest 447 514 38,000  Level Miami Center
05:35PM 23.8956 -79.0133 331° Northwest 458 527 38,000  Level Miami Center
05:36PM 24.0158 -79.0656 338° Northwest 377 434 38,000 -360 Level Miami Center
05:37PM 24.1389 -79.0881 351° North 466 536 37,300 -2,100 Descending Miami Center
05:43PM 24.8880 -79.1860 351° North 469 540 24,100 -2,280 Descending FlightAware
05:44PM 25.0630 -79.2090 353° North 434 499 21,300 -2,040 Descending FlightAware
05:45PM 25.1830 -79.2250 353° North 418 481 19,300 -2,040 Descending FlightAware
05:46PM 25.3150 -79.2430 353° North 404 465 17,000 -2,100 Descending FlightAware
05:47PM 25.3550 -79.2570 342° North 385 443 16,000 -2,220 Descending FlightAware
05:47PM 25.4150 -79.3030 325° Northwest 371 427 14,600 -2,340 Descending FlightAware
05:48PM 25.4650 -79.3410 326° Northwest 370 426 13,100 -2,280 Descending FlightAware
05:49PM 25.5340 -79.3920 326° Northwest 350 403 11,400 -2,400 Descending FlightAware
05:50PM 25.6190 -79.4560 326° Northwest 345 397 8,800 -2,400 Descending FlightAware
05:50PM 25.6460 -79.4770 325° Northwest 338 389 8,000 -2,280 Descending FlightAware
05:50PM 25.6620 -79.4880 328° Northwest 338 389 7,500 -1,680 Descending FlightAware
05:51PM 25.7340 -79.5430 325° Northwest 310 357 6,100 -900 Descending FlightAware
05:52PM 25.7880 -79.5840 326° Northwest 276 318 5,900 -180 Descending FlightAware
05:53PM 25.8170 -79.6060 326° Northwest 275 316 5,900  Level FlightAware
05:53PM 25.8580 -79.6460 319° Northwest 270 311 5,900  Level FlightAware
05:54PM 25.8760 -79.6840 298° West 270 311 5,900  Level FlightAware
05:55PM 25.9060 -79.7440 299° West 267 307 5,900  Level FlightAware
05:55PM 25.9250 -79.7800 300° West 268 308 5,900  Level FlightAware
05:56PM 25.9520 -79.8340 299° West 265 305 5,900  Level FlightAware
05:56PM 25.9680 -79.8640 301° West 265 305 5,900  Level FlightAware
05:57PM 26.0060 -79.9340 301° West 259 298 5,900  Level FlightAware
05:58PM 26.0150 -79.9510 301° West 258 297 5,900  Level FlightAware
05:58PM 26.0320 -79.9810 302° West 260 299 5,900  Level FlightAware
05:59PM 26.0510 -80.0160 301° West 259 298 5,900  Level FlightAware
05:59PM 26.0670 -80.0450 302° West 262 302 5,900  Level FlightAware
05:59PM 26.0860 -80.0800 301° West 259 298 5,900  Level FlightAware
06:00PM 26.1010 -80.1070 302° West 238 274 5,900  Level FlightAware
06:00PM 26.1120 -80.1270 301° West 225 259 5,900  Level FlightAware
06:01PM 26.1260 -80.1520 302° West 221 254 5,900 -360 Level FlightAware
06:01PM 26.1390 -80.1830 295° West 222 255 5,600 -780 Descending FlightAware
06:01PM 26.1400 -80.1930 276° West 221 254 5,400 -1,200 Descending FlightAware
06:02PM 26.1400 -80.2290 270° West 226 260 4,800 -1,200 Descending FlightAware
06:02PM 26.1410 -80.2620 272° West 227 261 4,200 -1,200 Descending FlightAware
06:03PM 26.1420 -80.2810 273° West 226 260 3,900 -1,200 Descending FlightAware
06:03PM 26.1320 -80.3060 246° West 206 237 3,400 -1,500 Descending FlightAware
06:03PM 26.1170 -80.3110 197° South 210 242 2,900 -2,100 Descending FlightAware
06:04PM 26.0920 -80.3070 172° South 220 253 2,000 -1,800 Descending FlightAware
06:04PM 26.0790 -80.2990 151° Southeast 217 250 1,700 -1,020 Descending FlightAware
06:04PM 26.0740 -80.2840 110° East 204 235 1,500 -540 Descending FlightAware
06:05PM 26.0770 -80.2560 83° East 173 199 1,300 -480 Descending FlightAware
06:05PM 26.0770 -80.2470 90° East 163 188 1,200 -600 Descending FlightAware
06:05PM 26.0770 -80.2230 90° East 160 184 900 -840 Descending FlightAware
06:06PM 26.0770 -80.2100 90° East 155 178 600 -900 Descending FlightAware
06:06PM 26.0770 -80.1950 90° East 143 165 400 -420 Descending FlightAware
06:07PM 26.0770 -80.1660 90° East 140 161 200 -300 Descending FlightAware
06:14PM 26.0667 -80.1500 77° East  Level FlightAware Approximate